Time;durP1;ratioP1;P1;durP2;ratioP2;P2;SDS_P1;SDS_P2;PMS_P1;PMS_P2;Temp;Humidity;BMP_temperature;BMP_pressure;BME280_temperature;BME280_humidity;BME280_pressure;Samples;Min_cycle;Max_cycle;Signal;HPM_P1;HPM_P2
2022/05/25 04:04:06;;;;;;;6.32;5.55;;;;;;;18.37;76.33;100118.69;5606198;31;77265;-58
2022/05/25 04:07:08;;;;;;;7.97;5.60;;;;;;;18.37;76.33;100118.69;5583510;32;33123;-58
2022/05/25 04:10:13;;;;;;;8.23;5.70;;;;;;;17.92;78.26;100123.03;5584004;31;33635;-58
2022/05/25 04:13:16;;;;;;;6.53;4.93;;;;;;;17.93;76.22;100119.19;5584163;31;33685;-58
2022/05/25 04:16:18;;;;;;;6.82;5.05;;;;;;;18.03;80.30;100116.03;5584003;31;33704;-58
2022/05/25 04:19:21;;;;;;;6.35;5.00;;;;;;;18.07;77.13;100118.87;5591890;31;33496;-58
2022/05/25 04:22:23;;;;;;;7.62;4.93;;;;;;;18.15;77.05;100122.63;5603697;31;33527;-56
2022/05/25 04:25:26;;;;;;;6.15;4.55;;;;;;;18.11;76.72;100125.22;5603241;31;34302;-56
2022/05/25 04:28:29;;;;;;;5.18;4.37;;;;;;;18.15;72.93;100128.06;5602734;31;34465;-58
2022/05/25 04:31:31;;;;;;;6.60;4.60;;;;;;;18.10;76.05;100131.78;5588425;31;33637;-58
2022/05/25 04:34:34;;;;;;;6.10;5.00;;;;;;;18.08;74.45;100139.47;5583820;31;33724;-58
2022/05/25 04:40:57;;;;;;;6.97;4.72;;;;;;;18.26;73.13;100131.91;5563576;32;34370;-59
2022/05/25 04:44:03;;;;;;;7.05;4.75;;;;;;;18.29;76.29;100131.25;5581070;31;34281;-58
2022/05/25 04:47:08;;;;;;;6.18;4.37;;;;;;;18.44;75.69;100127.88;5582264;31;34179;-58
2022/05/25 04:50:12;;;;;;;;;;;;;;;18.39;71.70;100130.00;5580646;31;33660;-58
2022/05/25 04:53:16;;;;;;;6.82;4.65;;;;;;;18.37;75.37;100129.53;5580524;31;33166;-58
2022/05/25 04:59:39;;;;;;;7.62;5.18;;;;;;;18.51;76.21;100130.00;5579764;32;32976;-58
2022/05/25 05:02:42;;;;;;;6.90;4.40;;;;;;;18.53;71.32;100141.31;5581146;32;33608;-58
2022/05/25 05:05:45;;;;;;;7.90;4.95;;;;;;;18.54;75.00;100134.75;5567768;32;33695;-58
2022/05/25 05:08:47;;;;;;;8.23;4.90;;;;;;;18.58;70.09;100140.31;5580371;32;32853;-58
2022/05/25 05:11:49;;;;;;;5.53;4.07;;;;;;;18.68;74.75;100137.12;5583027;32;33623;-58
2022/05/25 05:14:51;;;;;;;7.20;4.90;;;;;;;18.74;75.63;100133.06;5558225;32;33879;-58
2022/05/25 05:17:53;;;;;;;9.05;4.97;;;;;;;18.74;71.79;100133.88;5563414;32;34017;-58
2022/05/25 05:20:57;;;;;;;6.53;4.62;;;;;;;18.86;69.99;100141.22;5570261;31;33075;-58
2022/05/25 05:23:59;;;;;;;5.43;4.47;;;;;;;18.95;68.82;100141.09;5565714;32;33687;-58
2022/05/25 05:27:02;;;;;;;7.47;4.82;;;;;;;19.05;69.56;100156.91;5565134;32;33683;-58
2022/05/25 05:30:06;;;;;;;6.20;4.57;;;;;;;19.14;68.29;100159.50;5569148;32;33673;-58
2022/05/25 05:33:08;;;;;;;6.85;4.62;;;;;;;19.21;68.25;100160.50;5565326;32;33232;-58
2022/05/25 05:36:15;;;;;;;7.45;4.47;;;;;;;19.19;70.40;100159.25;5564672;32;33758;-58
2022/05/25 05:39:21;;;;;;;6.22;4.43;;;;;;;19.30;67.93;100163.06;5563045;32;33614;-58
2022/05/25 05:42:25;;;;;;;7.93;4.97;;;;;;;19.36;66.09;100174.50;5554080;32;33974;-58
2022/05/25 05:45:32;;;;;;;10.80;5.10;;;;;;;19.39;69.01;100182.75;5569322;32;33758;-58
2022/05/25 05:48:36;;;;;;;7.97;4.90;;;;;;;19.38;65.74;100183.91;5569096;32;33549;-58
2022/05/25 05:51:40;;;;;;;6.57;4.90;;;;;;;19.36;65.57;100193.53;5568960;32;34351;-58
2022/05/25 05:54:44;;;;;;;6.90;4.80;;;;;;;19.31;66.96;100191.84;5567588;32;33566;-58
2022/05/25 05:57:47;;;;;;;9.23;4.78;;;;;;;19.33;71.81;100196.94;5567233;32;34445;-58
2022/05/25 06:00:49;;;;;;;13.40;4.90;;;;;;;19.54;69.11;100194.06;5565829;32;33741;-56
2022/05/25 06:03:51;;;;;;;9.38;5.20;;;;;;;19.73;68.51;100196.94;5564637;32;33779;-56
2022/05/25 06:06:54;;;;;;;8.10;4.70;;;;;;;19.78;67.32;100196.72;5565733;32;34271;-56
2022/05/25 06:09:56;;;;;;;8.00;5.57;;;;;;;19.88;65.00;100200.88;5567407;32;33642;-56
2022/05/25 06:12:59;;;;;;;11.45;5.12;;;;;;;19.87;67.30;100202.81;5568472;32;33307;-58
2022/05/25 06:19:30;;;;;;;8.82;5.30;;;;;;;19.86;66.96;100194.97;5568526;32;34306;-58
2022/05/25 06:22:32;;;;;;;6.45;4.80;;;;;;;19.92;64.52;100193.59;5568620;32;33294;-58
2022/05/25 06:25:35;;;;;;;7.35;4.68;;;;;;;19.98;64.01;100191.41;5563653;32;34203;-58
2022/05/25 06:28:37;;;;;;;9.25;4.12;;;;;;;20.10;67.90;100197.59;5567486;32;34311;-58
2022/05/25 06:31:39;;;;;;;8.05;4.65;;;;;;;20.12;64.53;100191.78;5566868;32;33949;-57
2022/05/25 06:34:47;;;;;;;7.00;4.60;;;;;;;20.06;66.61;100195.91;5565418;32;33883;-58
2022/05/25 06:37:49;;;;;;;14.27;4.55;;;;;;;20.16;63.33;100200.81;5565457;32;33723;-58
2022/05/25 06:40:52;;;;;;;7.10;4.45;;;;;;;20.26;64.09;100203.03;5567558;32;34284;-58
2022/05/25 06:43:55;;;;;;;10.65;4.55;;;;;;;20.48;62.74;100193.47;5561176;32;34276;-58
2022/05/25 06:46:58;;;;;;;9.43;3.67;;;;;;;20.57;61.21;100191.41;5567325;32;33682;-58
2022/05/25 06:50:01;;;;;;;8.57;4.18;;;;;;;20.72;67.15;100189.03;5568180;32;33696;-58
2022/05/25 06:53:03;;;;;;;7.12;4.35;;;;;;;20.82;62.15;100191.22;5567384;32;34264;-58
2022/05/25 06:56:06;;;;;;;11.10;3.90;;;;;;;20.99;64.10;100193.56;5566868;32;34322;-58
2022/05/25 06:59:08;;;;;;;11.02;4.32;;;;;;;21.16;60.08;100195.12;5565638;32;33153;-58
2022/05/25 07:02:11;;;;;;;5.57;3.65;;;;;;;21.29;61.02;100203.94;5568181;32;34490;-56
2022/05/25 07:05:14;;;;;;;7.12;3.75;;;;;;;21.34;62.51;100199.03;5568212;32;33573;-56
2022/05/25 07:08:17;;;;;;;5.30;3.42;;;;;;;21.31;60.42;100185.28;5566989;32;34220;-56
2022/05/25 07:11:21;;;;;;;8.27;3.75;;;;;;;21.40;63.55;100194.09;5564009;32;34237;-56
2022/05/25 07:14:23;;;;;;;6.55;3.60;;;;;;;21.48;58.96;100195.03;5566826;32;33641;-56
2022/05/25 07:17:25;;;;;;;6.35;4.00;;;;;;;21.55;61.34;100198.69;5567430;32;33708;-56
2022/05/25 07:20:27;;;;;;;9.02;4.25;;;;;;;21.55;60.44;100201.41;5564898;32;33768;-56
2022/05/25 07:23:31;;;;;;;6.93;4.32;;;;;;;21.67;61.75;100205.94;5565383;32;34356;-56
2022/05/25 07:26:34;;;;;;;6.37;4.12;;;;;;;21.73;61.67;100196.31;5562374;32;33717;-56
2022/05/25 07:29:36;;;;;;;8.20;4.03;;;;;;;21.86;62.25;100194.22;5567650;32;33558;-56
2022/05/25 07:32:38;;;;;;;12.20;4.57;;;;;;;21.91;62.29;100195.88;5568561;32;34309;-56
2022/05/25 07:35:41;;;;;;;7.32;4.35;;;;;;;22.00;60.60;100189.03;5568586;31;33648;-56
2022/05/25 07:38:49;;;;;;;10.40;4.85;;;;;;;22.07;60.61;100188.38;5551530;32;33799;-56
2022/05/25 07:41:56;;;;;;;9.23;4.78;;;;;;;22.13;61.14;100192.41;5555264;32;33805;-56
2022/05/25 07:45:00;;;;;;;11.82;5.00;;;;;;;22.15;59.19;100192.00;5565945;32;32101;-56
2022/05/25 07:48:03;;;;;;;7.20;3.97;;;;;;;22.16;60.83;100196.37;5567286;32;33840;-56
2022/05/25 07:51:10;;;;;;;5.87;4.35;;;;;;;22.28;60.71;100202.47;5568645;32;33639;-56
2022/05/25 07:54:12;;;;;;;6.43;4.20;;;;;;;22.31;61.42;100192.72;5565559;32;33654;-56
2022/05/25 07:57:15;;;;;;;7.97;4.78;;;;;;;22.40;61.62;100187.81;5566319;32;33866;-56
2022/05/25 08:00:25;;;;;;;14.27;4.97;;;;;;;22.54;61.08;100194.66;5565600;32;33674;-56
2022/05/25 08:06:49;;;;;;;9.75;4.65;;;;;;;22.48;61.47;100196.91;5564582;32;31919;-56
2022/05/25 08:10:02;;;;;;;8.63;5.25;;;;;;;22.54;61.83;100203.66;5560847;32;33592;-56
2022/05/25 08:13:05;;;;;;;9.35;4.68;;;;;;;22.58;61.36;100204.50;5565071;32;33824;-56
2022/05/25 08:16:08;;;;;;;13.77;5.47;;;;;;;22.71;61.87;100211.38;5567841;32;34408;-56
2022/05/25 08:19:10;;;;;;;7.03;5.25;;;;;;;22.67;61.10;100198.78;5566888;32;34359;-56
2022/05/25 08:22:13;;;;;;;8.65;5.20;;;;;;;22.58;61.29;100207.22;5562791;32;34386;-56
2022/05/25 08:25:17;;;;;;;9.23;5.55;;;;;;;22.60;61.01;100195.94;5557076;32;34204;-56
2022/05/25 08:28:20;;;;;;;15.20;5.90;;;;;;;22.52;61.86;100201.28;5563467;32;34462;-56
2022/05/25 08:31:22;;;;;;;9.60;6.53;;;;;;;22.60;61.68;100201.41;5565666;32;33756;-56
2022/05/25 08:34:26;;;;;;;17.12;6.53;;;;;;;22.67;61.63;100193.31;5561540;32;33682;-56
2022/05/25 08:37:29;;;;;;;10.07;6.35;;;;;;;22.60;60.95;100187.75;5562161;32;34055;-56
2022/05/25 08:40:32;;;;;;;10.82;6.32;;;;;;;22.62;61.12;100199.87;5564930;32;33709;-56
2022/05/25 08:43:46;;;;;;;8.45;6.15;;;;;;;22.64;62.60;100188.59;5565989;32;33624;-56
2022/05/25 08:46:55;;;;;;;10.60;6.57;;;;;;;22.77;61.33;100186.44;5560730;32;33367;-56
2022/05/25 08:49:57;;;;;;;9.07;6.47;;;;;;;22.67;60.91;100188.63;5565268;32;33603;-56
2022/05/25 08:53:02;;;;;;;16.98;7.20;;;;;;;22.66;61.22;100192.53;5565249;32;33728;-56
2022/05/25 08:56:27;;;;;;;11.30;6.03;;;;;;;22.65;61.59;100192.87;5564322;32;33585;-56
2022/05/25 08:59:42;;;;;;;15.13;6.43;;;;;;;22.72;61.40;100191.06;5563643;32;34107;-56
2022/05/25 09:03:12;;;;;;;10.57;6.47;;;;;;;22.85;62.01;100186.19;5566757;32;33574;-56
2022/05/25 09:06:17;;;;;;;12.10;6.22;;;;;;;22.88;61.56;100184.66;5564889;32;34095;-56
2022/05/25 09:09:25;;;;;;;10.70;6.37;;;;;;;22.94;62.45;100191.41;5565549;32;34258;-56
2022/05/25 09:12:34;;;;;;;10.43;6.43;;;;;;;22.99;62.22;100185.63;5566485;32;34500;-56
2022/05/25 09:16:15;;;;;;;12.15;7.32;;;;;;;23.01;61.77;100185.25;5566349;32;33688;-57
2022/05/25 09:19:11;;;;;;;9.05;6.65;;;;;;;23.04;59.75;100179.06;5565793;32;34319;-57
2022/05/25 09:22:19;;;;;;;8.32;5.97;;;;;;;23.15;60.86;100180.00;5567433;32;33688;-57
2022/05/25 09:25:21;;;;;;;6.97;5.93;;;;;;;23.17;61.33;100186.66;5567595;32;33665;-58
2022/05/25 09:28:30;;;;;;;7.75;5.80;;;;;;;23.17;61.02;100188.63;5565359;32;33961;-57
2022/05/25 09:31:40;;;;;;;9.40;6.00;;;;;;;23.19;61.37;100183.56;5562680;32;33619;-57
2022/05/25 09:34:59;;;;;;;13.30;6.12;;;;;;;23.17;60.99;100186.66;5557837;32;33826;-57
2022/05/25 09:38:12;;;;;;;10.48;6.43;;;;;;;23.23;61.63;100187.13;5561670;32;33227;-57
2022/05/25 09:41:22;;;;;;;8.25;6.40;;;;;;;23.34;61.42;100179.06;5565169;32;30513;-57
2022/05/25 09:44:25;;;;;;;8.77;6.10;;;;;;;23.37;61.02;100179.09;5563782;32;33647;-57
2022/05/25 09:47:41;;;;;;;27.83;7.78;;;;;;;23.39;61.50;100187.75;5565332;32;34807;-57
2022/05/25 09:50:52;;;;;;;9.32;6.12;;;;;;;23.42;62.49;100181.53;5563167;32;33661;-57
2022/05/25 09:54:35;;;;;;;8.43;6.32;;;;;;;23.49;61.89;100177.31;5559403;32;33753;-57
2022/05/25 09:57:42;;;;;;;9.33;6.73;;;;;;;23.60;61.33;100179.00;5565274;32;34324;-57
2022/05/25 10:00:56;;;;;;;10.55;6.62;;;;;;;23.64;61.14;100176.31;5569171;32;34470;-57
2022/05/25 10:04:02;;;;;;;9.02;6.72;;;;;;;23.63;60.44;100178.25;5568855;32;33750;-57
2022/05/25 10:07:32;;;;;;;8.65;6.55;;;;;;;23.70;61.05;100187.75;5567664;32;33736;-57
2022/05/25 10:10:43;;;;;;;14.45;7.57;;;;;;;23.73;60.95;100176.84;5561227;32;33602;-57
2022/05/25 10:13:46;;;;;;;12.40;7.30;;;;;;;23.82;59.95;100182.81;5564493;32;33775;-57
2022/05/25 10:16:50;;;;;;;13.18;7.12;;;;;;;23.85;61.06;100187.53;5567107;32;33597;-57
2022/05/25 10:19:54;;;;;;;10.75;7.32;;;;;;;23.95;60.16;100185.28;5567959;32;33640;-57
2022/05/25 10:23:27;;;;;;;12.67;8.23;;;;;;;23.92;59.79;100176.66;5566396;32;33643;-57
2022/05/25 10:26:38;;;;;;;12.05;7.60;;;;;;;23.92;60.45;100173.13;5557847;32;32042;-58
2022/05/25 10:37:16;;;;;;;10.50;8.05;;;;;;;23.90;60.54;100181.72;5554593;32;33691;-57
2022/05/25 10:40:22;;;;;;;11.85;7.80;;;;;;;24.05;60.98;100171.69;5563121;32;33741;-57
2022/05/25 10:43:27;;;;;;;8.80;7.62;;;;;;;24.06;60.85;100172.47;5565710;32;33663;-58
2022/05/25 10:46:30;;;;;;;9.85;7.70;;;;;;;24.10;60.30;100173.28;5567984;32;33865;-57
2022/05/25 10:49:37;;;;;;;11.05;8.18;;;;;;;24.09;61.57;100174.47;5563936;32;33641;-57
2022/05/25 10:52:45;;;;;;;11.32;7.90;;;;;;;24.11;61.08;100174.88;5567506;32;33675;-57
2022/05/25 10:56:12;;;;;;;10.63;8.20;;;;;;;24.13;60.03;100167.06;5568078;32;33708;-57
2022/05/25 10:59:24;;;;;;;8.65;7.75;;;;;;;24.21;60.33;100174.19;5566357;32;33278;-57
2022/05/25 11:02:32;;;;;;;10.40;8.40;;;;;;;24.20;60.07;100169.88;5567687;32;33716;-57
2022/05/25 11:05:57;;;;;;;10.27;7.72;;;;;;;24.31;59.93;100162.56;5568041;32;33585;-57
2022/05/25 11:09:35;;;;;;;18.83;8.07;;;;;;;24.29;60.25;100159.37;5563569;32;33646;-57
2022/05/25 11:13:02;;;;;;;14.07;8.48;;;;;;;24.47;57.65;100167.00;5564126;32;33244;-57
2022/05/25 11:16:30;;;;;;;8.77;7.87;;;;;;;24.56;58.78;100164.72;5556999;32;34280;-57
2022/05/25 11:19:44;;;;;;;10.93;7.97;;;;;;;24.67;58.44;100164.78;5564971;32;34310;-57
2022/05/25 11:23:25;;;;;;;8.32;6.85;;;;;;;24.74;58.25;100168.38;5561213;32;33699;-57
2022/05/25 11:26:52;;;;;;;8.57;6.90;;;;;;;24.87;58.11;100176.28;5559306;32;34818;-57
2022/05/25 11:30:14;;;;;;;12.43;7.32;;;;;;;24.86;57.58;100183.72;5565773;32;33717;-57
2022/05/25 11:33:32;;;;;;;10.48;7.35;;;;;;;24.82;58.09;100172.75;5554802;32;33421;-57
2022/05/25 11:37:00;;;;;;;8.60;7.20;;;;;;;24.78;56.35;100174.69;5556455;32;33627;-57
2022/05/25 11:40:26;;;;;;;10.60;6.90;;;;;;;24.71;54.89;100174.62;5563158;32;34446;-57
2022/05/25 11:43:43;;;;;;;9.85;6.97;;;;;;;24.68;56.70;100183.63;5555819;32;34318;-57
2022/05/25 11:46:48;;;;;;;6.55;5.95;;;;;;;24.80;54.68;100172.34;5550514;32;34399;-57
2022/05/25 11:50:35;;;;;;;9.90;6.85;;;;;;;24.82;55.98;100169.22;5556588;32;34387;-57
2022/05/25 11:53:56;;;;;;;9.93;6.97;;;;;;;24.84;55.83;100175.91;5559802;32;34029;-57
2022/05/25 11:57:18;;;;;;;9.38;6.62;;;;;;;24.82;56.14;100167.25;5561415;32;34324;-57
2022/05/25 12:00:29;;;;;;;8.95;6.47;;;;;;;24.83;54.51;100168.84;5559004;32;34407;-57
2022/05/25 12:03:43;;;;;;;9.32;6.35;;;;;;;24.88;53.26;100173.19;5556811;32;33581;-57
2022/05/25 12:07:12;;;;;;;7.85;5.75;;;;;;;24.92;54.64;100170.44;5549034;32;33810;-57
2022/05/25 12:10:37;;;;;;;8.73;6.22;;;;;;;24.97;54.18;100168.16;5553050;32;34295;-57
2022/05/25 12:13:59;;;;;;;8.65;6.07;;;;;;;24.98;54.35;100164.22;5567306;32;34617;-57
2022/05/25 12:17:20;;;;;;;7.47;6.72;;;;;;;25.02;54.23;100176.00;5548941;32;34532;-57
2022/05/25 12:20:33;;;;;;;7.72;6.37;;;;;;;24.91;53.59;100166.16;5548727;32;33723;-57
2022/05/25 12:23:39;;;;;;;12.05;6.40;;;;;;;24.81;54.12;100170.41;5549424;32;33968;-57
2022/05/25 12:26:42;;;;;;;9.90;6.55;;;;;;;24.78;54.79;100176.63;5555273;32;34183;-57
2022/05/25 12:30:09;;;;;;;7.37;6.55;;;;;;;24.91;55.36;100168.88;5570470;32;34367;-57
2022/05/25 12:33:20;;;;;;;9.30;6.28;;;;;;;24.81;54.65;100173.13;5547702;31;34228;-57
2022/05/25 12:36:22;;;;;;;7.85;6.25;;;;;;;24.83;54.91;100173.53;5570055;31;33747;-57
2022/05/25 12:39:43;;;;;;;10.98;6.40;;;;;;;24.93;56.19;100172.03;5569235;32;34459;-57
2022/05/25 12:42:47;;;;;;;8.18;6.75;;;;;;;25.12;54.54;100168.25;5570470;32;34094;-57
2022/05/25 12:49:12;;;;;;;8.30;6.43;;;;;;;25.17;55.90;100178.88;5570446;32;33693;-57
2022/05/25 12:52:26;;;;;;;9.00;6.40;;;;;;;25.04;55.35;100173.66;5570220;32;33626;-57
2022/05/25 12:55:32;;;;;;;8.98;6.72;;;;;;;24.94;56.01;100171.66;5570424;32;33621;-57
2022/05/25 12:58:34;;;;;;;7.90;5.95;;;;;;;24.91;56.43;100186.13;5570662;32;34443;-57
2022/05/25 13:01:42;;;;;;;11.75;6.62;;;;;;;24.97;57.01;100179.13;5570233;32;34282;-57
2022/05/25 13:04:47;;;;;;;8.15;6.70;;;;;;;24.99;56.50;100179.50;5570577;32;33725;-57
2022/05/25 13:07:50;;;;;;;9.73;6.95;;;;;;;25.02;57.08;100167.75;5570598;32;33715;-57
2022/05/25 13:11:01;;;;;;;10.55;6.65;;;;;;;25.03;56.36;100171.28;5569873;32;33666;-57
2022/05/25 13:14:10;;;;;;;9.35;6.57;;;;;;;24.97;55.56;100165.41;5569884;32;34427;-57
2022/05/25 13:17:45;;;;;;;9.55;7.25;;;;;;;24.97;55.66;100170.09;5567676;32;33767;-57
2022/05/25 13:20:47;;;;;;;14.68;6.60;;;;;;;24.97;56.94;100162.66;5568438;32;33753;-57
2022/05/25 13:23:52;;;;;;;11.07;7.40;;;;;;;24.94;55.66;100155.19;5569954;32;34491;-57
2022/05/25 13:27:10;;;;;;;9.13;6.40;;;;;;;24.85;55.23;100162.97;5569911;32;34425;-57
2022/05/25 13:30:18;;;;;;;9.68;7.82;;;;;;;24.63;55.81;100170.25;5570072;32;33812;-57
2022/05/25 13:33:23;;;;;;;10.98;7.30;;;;;;;24.56;56.28;100172.94;5569284;32;33608;-57
2022/05/25 13:36:28;;;;;;;16.77;7.60;;;;;;;24.50;57.23;100178.00;5568795;32;33885;-57
2022/05/25 13:39:32;;;;;;;15.05;7.68;;;;;;;24.50;57.62;100178.00;5569771;32;33915;-57
2022/05/25 13:42:39;;;;;;;15.23;7.30;;;;;;;24.58;58.32;100181.59;5569721;32;33727;-57
2022/05/25 13:45:44;;;;;;;20.20;7.55;;;;;;;24.67;56.65;100182.03;5569614;32;34369;-57
2022/05/25 13:48:52;;;;;;;13.20;7.50;;;;;;;24.70;57.22;100185.97;5569489;32;33620;-57
2022/05/25 13:52:18;;;;;;;9.30;7.50;;;;;;;24.67;55.74;100179.31;5569304;32;33345;-57
2022/05/25 13:55:23;;;;;;;17.05;7.70;;;;;;;24.55;56.92;100190.56;5569475;32;34376;-57
2022/05/25 13:58:25;;;;;;;13.75;7.62;;;;;;;24.47;56.08;100191.66;5569427;32;33891;-57
2022/05/25 14:01:27;;;;;;;17.98;7.62;;;;;;;24.35;56.33;100184.50;5569095;32;34565;-57
2022/05/25 14:04:31;;;;;;;12.02;8.45;;;;;;;24.47;56.52;100184.25;5569230;32;33654;-57
2022/05/25 14:07:41;;;;;;;10.75;8.05;;;;;;;24.38;55.18;100189.22;5569758;32;33901;-57
2022/05/25 14:11:02;;;;;;;13.85;7.95;;;;;;;24.20;56.06;100204.69;5569579;32;33683;-57
2022/05/25 14:14:24;;;;;;;13.10;7.75;;;;;;;24.13;57.09;100200.72;5569768;32;34445;-57
2022/05/25 14:17:27;;;;;;;16.58;7.97;;;;;;;24.14;56.67;100205.03;5568212;32;33667;-57
2022/05/25 14:20:30;;;;;;;10.00;7.50;;;;;;;24.16;56.67;100207.41;5569303;32;34342;-57
2022/05/25 14:23:32;;;;;;;13.00;7.60;;;;;;;24.29;56.69;100222.41;5569558;32;34322;-57
2022/05/25 14:26:37;;;;;;;10.20;7.43;;;;;;;24.45;55.43;100226.87;5569481;32;33593;-56
2022/05/25 14:29:40;;;;;;;12.20;7.57;;;;;;;24.51;54.39;100241.81;5569679;32;34448;-57
2022/05/25 14:33:02;;;;;;;11.05;6.93;;;;;;;24.45;53.67;100218.66;5569429;32;34264;-57
2022/05/25 14:36:08;;;;;;;7.05;6.37;;;;;;;24.51;54.51;100236.34;5569419;32;33750;-57
2022/05/25 14:39:15;;;;;;;8.15;6.80;;;;;;;24.50;53.67;100227.34;5569538;32;33613;-57
2022/05/25 14:42:26;;;;;;;10.98;6.28;;;;;;;24.39;52.51;100242.84;5569427;32;33815;-57
2022/05/25 14:45:30;;;;;;;8.05;6.12;;;;;;;24.38;53.07;100239.31;5569159;32;34287;-57
2022/05/25 14:48:33;;;;;;;8.55;6.47;;;;;;;24.35;54.22;100233.81;5569191;32;33720;-57
2022/05/25 14:51:43;;;;;;;7.57;6.25;;;;;;;24.49;52.82;100249.63;5569616;32;34482;-57
2022/05/25 14:54:46;;;;;;;9.10;6.25;;;;;;;24.48;52.67;100257.06;5569520;32;34146;-57
2022/05/25 14:58:03;;;;;;;12.65;6.53;;;;;;;24.52;52.32;100265.31;5569525;32;34218;-57
2022/05/25 15:01:06;;;;;;;7.82;5.53;;;;;;;24.43;52.11;100262.84;5569521;32;33827;-57
2022/05/25 15:04:11;;;;;;;8.40;5.65;;;;;;;24.29;51.98;100266.22;5569352;32;33664;-57
2022/05/25 15:07:26;;;;;;;6.12;5.45;;;;;;;24.20;52.14;100265.72;5569451;32;33787;-57
2022/05/25 15:10:31;;;;;;;7.25;5.72;;;;;;;24.01;52.88;100274.94;5569531;32;33276;-57
